createdAt,value
2022-08-07T00:00:26.208Z,2.35
2022-08-07T00:02:56.050Z,2.00
2022-08-07T00:05:24.583Z,2.40
2022-08-07T00:08:00.334Z,2.90
2022-08-07T00:10:30.863Z,2.40
2022-08-07T00:13:01.830Z,2.72
2022-08-07T00:15:38.663Z,2.60
2022-08-07T00:18:19.451Z,2.50
2022-08-07T00:20:49.564Z,2.75
2022-08-07T00:23:17.469Z,2.80
2022-08-07T00:25:45.863Z,2.42
2022-08-07T00:28:22.026Z,2.65
2022-08-07T00:30:49.891Z,3.30
2022-08-07T00:33:17.712Z,2.83
2022-08-07T00:35:49.528Z,2.92
2022-08-07T00:38:31.580Z,3.28
2022-08-07T00:40:59.970Z,2.88
2022-08-07T00:43:59.450Z,2.60
2022-08-07T00:46:16.173Z,3.30
2022-08-07T00:48:43.691Z,2.72
2022-08-07T00:51:11.218Z,2.75
2022-08-07T00:53:50.280Z,2.83
2022-08-07T00:56:23.119Z,2.95
2022-08-07T00:58:58.829Z,3.13
2022-08-07T01:01:26.795Z,3.20
2022-08-07T01:03:59.854Z,2.75
2022-08-07T01:06:29.767Z,3.13
2022-08-07T01:09:01.201Z,3.00
2022-08-07T01:12:09.453Z,3.38
2022-08-07T01:14:28.129Z,3.28
2022-08-07T01:16:56.755Z,3.33
2022-08-07T01:19:25.574Z,2.80
2022-08-07T01:21:55.545Z,2.83
2022-08-07T01:24:30.659Z,3.40
2022-08-07T01:27:00.605Z,2.92
2022-08-07T01:29:31.337Z,3.05
2022-08-07T01:32:05.285Z,3.30
2022-08-07T01:34:33.884Z,2.97
2022-08-07T01:37:09.850Z,3.08
2022-08-07T01:39:46.147Z,2.80
2022-08-07T01:42:38.025Z,2.92
2022-08-07T01:45:17.747Z,2.80
2022-08-07T01:48:19.102Z,2.92
2022-08-07T01:50:40.334Z,3.03
2022-08-07T01:53:20.657Z,3.05
2022-08-07T01:55:50.148Z,3.17
2022-08-07T01:58:27.160Z,3.28
2022-08-07T02:00:57.979Z,3.17
2022-08-07T02:03:49.021Z,3.58
2022-08-07T02:06:31.260Z,3.65
2022-08-07T02:09:04.197Z,2.90
2022-08-07T02:12:02.927Z,2.90
2022-08-07T02:14:36.599Z,3.40
2022-08-07T02:17:16.583Z,3.10
2022-08-07T02:20:04.299Z,3.40
2022-08-07T02:22:38.357Z,3.17
2022-08-07T02:25:13.729Z,3.22
2022-08-07T02:27:53.521Z,3.75
2022-08-07T02:30:24.146Z,3.38
2022-08-07T02:33:03.770Z,3.58
2022-08-07T02:36:28.987Z,3.60
2022-08-07T02:38:31.625Z,3.60
2022-08-07T02:41:01.421Z,3.67
2022-08-07T02:43:34.510Z,3.53
2022-08-07T02:46:04.703Z,4.10
2022-08-07T02:48:34.704Z,3.75
2022-08-07T02:51:07.509Z,4.07
2022-08-07T02:53:55.350Z,3.95
2022-08-07T02:56:24.423Z,3.85
2022-08-07T02:58:55.779Z,4.15
2022-08-07T03:01:35.527Z,4.07
2022-08-07T03:04:12.920Z,4.53
2022-08-07T03:06:45.797Z,3.75
2022-08-07T03:09:14.963Z,4.15
2022-08-07T03:12:04.040Z,4.63
2022-08-07T03:14:36.347Z,4.60
2022-08-07T03:17:05.164Z,4.50
2022-08-07T03:19:37.254Z,8.23
2022-08-07T03:22:08.060Z,7.00
2022-08-07T03:24:47.065Z,6.10
2022-08-07T03:27:15.729Z,5.10
2022-08-07T03:30:03.802Z,4.97
2022-08-07T03:32:39.300Z,4.90
2022-08-07T03:37:53.819Z,5.10
2022-08-07T03:40:30.660Z,4.43
2022-08-07T03:43:05.031Z,4.50
2022-08-07T03:45:43.521Z,4.88
2022-08-07T03:48:17.380Z,4.53
2022-08-07T03:50:52.030Z,4.93
2022-08-07T03:54:02.047Z,4.53
2022-08-07T03:56:15.253Z,4.30
2022-08-07T03:59:08.794Z,4.22
2022-08-07T04:01:33.119Z,4.22
2022-08-07T04:04:05.049Z,4.40
2022-08-07T04:06:36.278Z,4.50
2022-08-07T04:09:15.363Z,4.20
2022-08-07T04:12:25.605Z,4.10
2022-08-07T04:14:38.995Z,4.30
2022-08-07T04:17:20.137Z,4.22
2022-08-07T04:19:54.147Z,3.97
2022-08-07T04:22:28.867Z,4.07
2022-08-07T04:25:00.980Z,3.92
2022-08-07T04:27:36.215Z,4.30
2022-08-07T04:30:35.696Z,4.10
2022-08-07T04:33:08.521Z,3.65
2022-08-07T04:35:39.473Z,3.75
2022-08-07T04:38:14.982Z,3.85
2022-08-07T04:40:52.295Z,3.83
2022-08-07T04:44:12.023Z,4.38
2022-08-07T04:46:53.962Z,4.00
2022-08-07T04:49:38.412Z,4.20
2022-08-07T04:52:08.647Z,4.30
2022-08-07T04:54:58.009Z,4.40
2022-08-07T04:58:12.436Z,3.97
2022-08-07T05:00:32.746Z,3.97
2022-08-07T05:03:17.241Z,4.05
2022-08-07T05:06:00.380Z,3.60
2022-08-07T05:08:59.225Z,3.92
2022-08-07T05:11:26.287Z,3.88
2022-08-07T05:14:53.678Z,3.50
2022-08-07T05:17:01.451Z,3.55
2022-08-07T05:19:53.898Z,3.60
2022-08-07T05:22:26.636Z,3.70
2022-08-07T05:24:59.777Z,3.80
2022-08-07T05:28:16.798Z,3.60
2022-08-07T05:30:30.326Z,3.70
2022-08-07T05:33:03.285Z,3.63
2022-08-07T05:35:41.699Z,3.70
2022-08-07T05:38:11.974Z,3.50
2022-08-07T05:40:42.791Z,3.80
2022-08-07T05:43:19.150Z,3.53
2022-08-07T05:45:48.465Z,3.25
2022-08-07T05:48:20.274Z,3.28
2022-08-07T05:50:54.454Z,3.50
2022-08-07T05:54:09.679Z,3.47
2022-08-07T05:56:12.460Z,3.38
2022-08-07T05:58:52.353Z,3.35
2022-08-07T06:01:23.041Z,2.97
2022-08-07T06:03:58.938Z,3.28
2022-08-07T06:06:32.561Z,3.30
2022-08-07T06:09:04.739Z,3.28
2022-08-07T06:11:35.154Z,3.05
2022-08-07T06:14:12.788Z,3.10
2022-08-07T06:16:55.911Z,2.80
2022-08-07T06:19:48.032Z,2.90
2022-08-07T06:22:23.318Z,2.90
2022-08-07T06:25:06.173Z,2.42
2022-08-07T06:27:59.717Z,2.63
2022-08-07T06:30:35.206Z,2.58
2022-08-07T06:33:09.703Z,2.17
2022-08-07T06:35:48.026Z,2.10
2022-08-07T06:38:30.781Z,2.22
2022-08-07T06:41:01.105Z,2.05
2022-08-07T06:43:39.379Z,2.00
2022-08-07T06:46:14.647Z,1.63
2022-08-07T06:48:48.477Z,1.75
2022-08-07T06:51:33.317Z,1.75
2022-08-07T06:55:27.461Z,1.48
2022-08-07T06:56:56.304Z,1.33
2022-08-07T07:00:13.313Z,1.42
2022-08-07T07:02:48.551Z,1.70
2022-08-07T07:05:12.855Z,1.30
2022-08-07T07:08:00.195Z,1.42
2022-08-07T07:10:31.417Z,1.65
2022-08-07T07:13:14.665Z,1.52
2022-08-07T07:15:51.486Z,1.40
2022-08-07T07:18:48.703Z,1.48
2022-08-07T07:21:40.319Z,1.30
2022-08-07T07:24:17.973Z,1.52
2022-08-07T07:26:49.588Z,1.48
2022-08-07T07:32:12.280Z,1.40
2022-08-07T07:34:46.631Z,1.20
2022-08-07T07:37:45.174Z,1.38
2022-08-07T07:40:15.083Z,1.38
2022-08-07T07:42:54.019Z,1.20
2022-08-07T07:46:35.743Z,1.02
2022-08-07T07:48:34.779Z,1.25
2022-08-07T07:51:08.064Z,1.27
2022-08-07T07:53:51.731Z,1.30
2022-08-07T07:56:29.989Z,1.13
2022-08-07T07:59:06.084Z,1.38
2022-08-07T08:02:05.164Z,1.38
2022-08-07T08:04:27.445Z,1.33
2022-08-07T08:06:56.235Z,1.50
2022-08-07T08:09:29.523Z,1.60
2022-08-07T08:12:02.401Z,1.30
2022-08-07T08:14:36.671Z,1.30
2022-08-07T08:17:32.483Z,1.50
2022-08-07T08:20:22.375Z,1.40
2022-08-07T08:23:10.252Z,1.45
2022-08-07T08:26:04.632Z,2.00
2022-08-07T08:28:39.207Z,1.65
2022-08-07T08:31:22.972Z,1.83
2022-08-07T08:34:05.817Z,1.90
2022-08-07T08:36:37.254Z,2.00
2022-08-07T08:39:08.335Z,1.85
2022-08-07T08:41:58.409Z,1.70
2022-08-07T08:44:41.275Z,1.88
2022-08-07T08:47:55.240Z,1.70
2022-08-07T08:50:34.814Z,1.38
2022-08-07T08:53:19.754Z,1.50
2022-08-07T08:55:58.903Z,1.70
2022-08-07T08:58:50.704Z,1.40
2022-08-07T09:01:46.477Z,1.45
2022-08-07T09:04:45.828Z,1.85
2022-08-07T09:07:46.142Z,1.63
2022-08-07T09:10:25.368Z,1.50
2022-08-07T09:13:15.058Z,1.30
2022-08-07T09:16:29.899Z,1.23
2022-08-07T09:19:51.662Z,1.38
2022-08-07T09:24:33.020Z,1.38
2022-08-07T09:25:26.516Z,1.38
2022-08-07T09:28:04.907Z,1.30
2022-08-07T09:30:56.902Z,1.50
2022-08-07T09:33:57.175Z,1.63
2022-08-07T09:37:01.340Z,1.58
2022-08-07T09:39:55.455Z,1.70
2022-08-07T09:42:37.886Z,1.90
2022-08-07T09:47:25.317Z,1.75
2022-08-07T09:48:30.025Z,1.67
2022-08-07T09:52:16.305Z,1.65
2022-08-07T09:54:21.802Z,1.52
2022-08-07T09:57:06.262Z,2.00
2022-08-07T10:00:07.928Z,1.30
2022-08-07T10:04:05.662Z,1.70
2022-08-07T10:06:11.843Z,1.40
2022-08-07T10:08:43.974Z,1.25
2022-08-07T10:12:02.144Z,1.50
2022-08-07T10:14:16.176Z,1.48
2022-08-07T10:17:16.846Z,1.33
2022-08-07T10:20:07.142Z,1.30
2022-08-07T10:24:06.069Z,1.63
2022-08-07T10:26:37.184Z,1.10
2022-08-07T10:29:16.019Z,1.35
2022-08-07T10:32:07.222Z,1.30
2022-08-07T10:35:55.614Z,1.23
2022-08-07T10:38:49.291Z,0.98
2022-08-07T10:41:52.063Z,1.10
2022-08-07T10:44:28.790Z,1.00
2022-08-07T10:47:53.869Z,1.60
2022-08-07T10:50:28.906Z,1.25
2022-08-07T10:53:21.657Z,1.13
2022-08-07T10:56:09.648Z,1.42
2022-08-07T10:59:09.340Z,1.38
2022-08-07T11:01:52.049Z,1.10
2022-08-07T11:04:40.719Z,1.10
2022-08-07T11:07:59.277Z,1.30
2022-08-07T11:10:38.953Z,1.20
2022-08-07T11:14:44.756Z,1.20
2022-08-07T11:16:34.455Z,1.15
2022-08-07T11:19:14.205Z,1.17
2022-08-07T11:22:18.932Z,1.20
2022-08-07T11:25:24.997Z,1.10
2022-08-07T11:28:15.498Z,1.33
2022-08-07T11:31:03.163Z,1.25
2022-08-07T11:34:26.901Z,1.25
2022-08-07T11:37:01.371Z,1.55
2022-08-07T11:39:59.481Z,1.30
2022-08-07T11:42:52.599Z,1.50
2022-08-07T11:45:36.135Z,1.40
2022-08-07T11:48:29.748Z,1.33
2022-08-07T11:51:41.453Z,1.30
2022-08-07T11:54:54.570Z,1.50
2022-08-07T11:58:00.253Z,1.35
2022-08-07T12:01:20.362Z,1.20
2022-08-07T12:04:20.560Z,1.65
2022-08-07T12:07:00.687Z,1.38
2022-08-07T12:09:43.022Z,1.50
2022-08-07T12:12:19.857Z,1.40
2022-08-07T12:14:56.365Z,1.48
2022-08-07T12:17:59.279Z,1.60
2022-08-07T12:20:35.050Z,1.60
2022-08-07T12:24:05.661Z,1.60
2022-08-07T12:26:40.610Z,1.50
2022-08-07T12:29:38.155Z,1.45
2022-08-07T12:32:28.346Z,1.60
2022-08-07T12:34:58.113Z,1.52
2022-08-07T12:38:09.098Z,1.30
2022-08-07T12:40:47.375Z,1.58
2022-08-07T12:43:11.455Z,1.52
2022-08-07T12:46:07.588Z,1.42
2022-08-07T12:48:52.408Z,1.77
2022-08-07T12:51:46.602Z,1.20
2022-08-07T12:54:37.805Z,1.30
2022-08-07T12:57:10.065Z,1.70
2022-08-07T12:59:54.903Z,1.75
2022-08-07T13:03:07.028Z,1.52
2022-08-07T13:06:03.626Z,1.50
2022-08-07T13:10:19.955Z,1.58
2022-08-07T13:12:27.125Z,1.90
2022-08-07T13:14:57.743Z,1.85
2022-08-07T13:17:46.722Z,1.80
2022-08-07T13:20:31.007Z,1.60
2022-08-07T13:24:01.410Z,1.92
2022-08-07T13:26:22.299Z,2.20
2022-08-07T13:28:59.383Z,2.10
2022-08-07T13:31:57.283Z,1.85
2022-08-07T13:34:50.803Z,2.05
2022-08-07T13:37:38.620Z,1.98
2022-08-07T13:40:34.912Z,1.83
2022-08-07T13:43:15.411Z,1.80
2022-08-07T13:48:35.032Z,1.90
2022-08-07T13:51:26.916Z,1.63
2022-08-07T13:54:05.982Z,1.92
2022-08-07T13:56:40.846Z,1.50
2022-08-07T13:59:27.136Z,1.80
2022-08-07T14:02:12.879Z,2.10
2022-08-07T14:04:55.104Z,2.08
2022-08-07T14:07:31.138Z,1.88
2022-08-07T14:10:21.562Z,1.90
2022-08-07T14:12:54.698Z,1.65
2022-08-07T14:15:35.914Z,2.15
2022-08-07T14:18:32.720Z,1.70
2022-08-07T14:22:02.207Z,1.90
2022-08-07T14:24:52.663Z,2.25
2022-08-07T14:28:10.895Z,2.00
2022-08-07T14:30:32.440Z,2.05
2022-08-07T14:33:04.682Z,2.42
2022-08-07T14:35:43.322Z,2.17
2022-08-07T14:38:30.211Z,1.88
2022-08-07T14:41:15.122Z,2.05
2022-08-07T14:43:57.212Z,1.83
2022-08-07T14:46:32.482Z,2.15
2022-08-07T14:49:55.701Z,2.20
2022-08-07T14:52:04.553Z,1.92
2022-08-07T15:06:03.910Z,2.30
2022-08-07T15:11:53.192Z,2.00
2022-08-07T15:14:30.401Z,2.30
2022-08-07T15:17:04.383Z,2.15
2022-08-07T15:20:31.255Z,2.13
2022-08-07T15:22:33.367Z,2.55
2022-08-07T15:25:25.360Z,1.90
2022-08-07T15:28:34.567Z,2.25
2022-08-07T15:31:05.805Z,2.10
2022-08-07T15:33:36.368Z,2.08
2022-08-07T15:36:07.699Z,1.95
2022-08-07T15:38:59.158Z,1.92
2022-08-07T15:44:23.584Z,2.17
2022-08-07T15:47:03.428Z,2.30
2022-08-07T15:50:05.612Z,2.13
2022-08-07T15:52:30.006Z,2.40
2022-08-07T15:55:02.989Z,2.03
2022-08-07T15:57:47.549Z,2.10
2022-08-07T16:00:31.336Z,2.47
2022-08-07T16:03:21.850Z,2.08
2022-08-07T16:06:03.280Z,2.35
2022-08-07T16:08:38.647Z,2.45
2022-08-07T16:11:55.855Z,2.42
2022-08-07T16:14:51.138Z,2.80
2022-08-07T16:18:02.994Z,2.30
2022-08-07T16:22:01.279Z,2.20
2022-08-07T16:24:34.452Z,2.40
2022-08-07T16:27:18.709Z,2.67
2022-08-07T16:30:30.409Z,2.60
2022-08-07T16:34:03.183Z,2.72
2022-08-07T16:36:20.234Z,2.45
2022-08-07T16:39:14.884Z,2.45
2022-08-07T16:42:03.297Z,2.38
2022-08-07T16:45:14.830Z,2.60
2022-08-07T16:48:05.715Z,2.38
2022-08-07T16:51:20.760Z,2.30
2022-08-07T16:54:33.025Z,2.38
2022-08-07T16:58:00.718Z,2.45
2022-08-07T17:00:15.450Z,2.53
2022-08-07T17:03:07.162Z,2.53
2022-08-07T17:06:19.636Z,2.25
2022-08-07T17:09:10.422Z,2.60
2022-08-07T17:12:33.499Z,2.43
2022-08-07T17:15:05.731Z,2.47
2022-08-07T17:17:44.030Z,2.22
2022-08-07T17:20:22.811Z,2.80
2022-08-07T17:23:12.861Z,2.22
2022-08-07T17:26:01.815Z,2.17
2022-08-07T17:28:56.435Z,2.28
2022-08-07T17:32:03.397Z,1.90
2022-08-07T17:35:39.979Z,2.28
2022-08-07T17:38:06.829Z,2.40
2022-08-07T17:40:30.846Z,2.50
2022-08-07T17:44:01.675Z,2.53
2022-08-07T17:46:34.274Z,2.38
2022-08-07T17:49:44.670Z,2.38
2022-08-07T17:52:43.260Z,2.47
2022-08-07T17:55:14.463Z,2.30
2022-08-07T17:58:13.837Z,2.30
2022-08-07T18:01:02.706Z,2.40
2022-08-07T18:04:07.180Z,2.30
2022-08-07T18:06:47.459Z,2.20
2022-08-07T18:10:04.380Z,2.10
2022-08-07T18:13:06.895Z,2.00
2022-08-07T18:15:57.545Z,2.10
2022-08-07T18:18:47.400Z,1.90
2022-08-07T18:21:51.670Z,2.03
2022-08-07T18:24:43.108Z,1.90
2022-08-07T18:27:38.232Z,1.80
2022-08-07T18:30:32.549Z,1.88
2022-08-07T18:33:12.232Z,2.05
2022-08-07T18:36:06.086Z,2.20
2022-08-07T18:38:57.224Z,2.10
2022-08-07T18:41:48.093Z,2.35
2022-08-07T18:44:24.187Z,2.10
2022-08-07T18:47:03.169Z,2.70
2022-08-07T18:50:35.156Z,2.25
2022-08-07T18:53:13.894Z,2.33
2022-08-07T18:56:14.427Z,2.13
2022-08-07T18:58:51.322Z,2.38
2022-08-07T19:02:18.187Z,2.20
2022-08-07T19:04:30.927Z,2.60
2022-08-07T19:07:14.561Z,2.40
2022-08-07T19:10:04.335Z,2.40
2022-08-07T19:12:58.141Z,2.33
2022-08-07T19:17:01.495Z,2.38
2022-08-07T19:19:31.934Z,2.97
2022-08-07T19:22:31.052Z,2.50
2022-08-07T19:25:05.618Z,2.00
2022-08-07T19:28:56.699Z,2.50
2022-08-07T19:30:58.001Z,2.17
2022-08-07T19:33:34.608Z,2.72
2022-08-07T19:36:04.119Z,2.40
2022-08-07T19:38:35.179Z,2.70
2022-08-07T19:41:44.568Z,2.63
2022-08-07T19:44:25.257Z,2.72
2022-08-07T19:47:08.408Z,2.63
2022-08-07T19:49:58.431Z,3.03
2022-08-07T19:52:31.496Z,2.88
2022-08-07T19:54:59.809Z,2.47
2022-08-07T19:58:02.454Z,2.60
2022-08-07T20:00:36.560Z,2.67
2022-08-07T20:03:35.453Z,2.47
2022-08-07T20:06:02.359Z,2.22
2022-08-07T20:08:41.570Z,2.38
2022-08-07T20:11:34.202Z,2.75
2022-08-07T20:14:13.703Z,2.67
2022-08-07T20:16:48.263Z,2.42
2022-08-07T20:19:28.719Z,2.63
2022-08-07T20:22:15.483Z,2.67
2022-08-07T20:24:52.665Z,2.95
2022-08-07T20:27:47.525Z,2.78
2022-08-07T20:30:13.669Z,3.40
2022-08-07T20:32:54.864Z,2.92
2022-08-07T20:35:51.581Z,3.05
2022-08-07T20:38:22.053Z,3.30
2022-08-07T20:40:53.374Z,3.38
2022-08-07T20:43:25.792Z,3.10
2022-08-07T20:46:25.576Z,3.65
2022-08-07T20:49:54.282Z,3.55
2022-08-07T20:51:40.485Z,3.72
2022-08-07T20:54:29.959Z,3.55
2022-08-07T20:57:03.861Z,3.28
2022-08-07T21:00:07.543Z,2.97
2022-08-07T21:02:54.467Z,3.08
2022-08-07T21:05:42.921Z,2.88
2022-08-07T21:08:16.612Z,3.33
2022-08-07T21:10:50.528Z,3.15
2022-08-07T21:13:24.760Z,3.00
2022-08-07T21:16:11.336Z,2.72
2022-08-07T21:18:46.145Z,2.65
2022-08-07T21:21:21.312Z,2.70
2022-08-07T21:24:15.294Z,2.60
2022-08-07T21:27:14.653Z,2.70
2022-08-07T21:29:53.035Z,2.70
2022-08-07T21:32:48.949Z,2.67
2022-08-07T21:35:34.871Z,2.70
2022-08-07T21:38:30.795Z,2.50
2022-08-07T21:41:24.628Z,2.83
2022-08-07T21:44:28.399Z,2.73
2022-08-07T21:47:37.382Z,2.63
2022-08-07T21:50:14.470Z,3.20
2022-08-07T21:53:09.660Z,3.00
2022-08-07T21:56:03.121Z,2.88
2022-08-07T21:59:04.846Z,2.88
2022-08-07T22:02:10.889Z,3.47
2022-08-07T22:04:51.070Z,2.70
2022-08-07T22:07:42.838Z,2.80
2022-08-07T22:10:24.711Z,2.80
2022-08-07T22:12:56.116Z,2.63
2022-08-07T22:16:44.089Z,2.63
2022-08-07T22:18:46.906Z,2.90
2022-08-07T22:21:20.726Z,2.90
2022-08-07T22:23:56.755Z,3.30
2022-08-07T22:26:44.170Z,2.83
2022-08-07T22:29:34.064Z,3.20
2022-08-07T22:32:24.568Z,2.97
2022-08-07T22:35:00.907Z,3.35
2022-08-07T22:38:10.628Z,2.90
2022-08-07T22:40:39.156Z,3.40
2022-08-07T22:43:11.246Z,3.13
2022-08-07T22:46:21.127Z,3.08
2022-08-07T22:48:56.096Z,3.20
2022-08-07T22:51:37.107Z,3.20
2022-08-07T22:54:49.058Z,3.50
2022-08-07T22:57:26.033Z,3.33
2022-08-07T23:00:12.117Z,3.25
2022-08-07T23:02:43.194Z,3.05
2022-08-07T23:06:15.704Z,3.10
2022-08-07T23:08:23.863Z,3.10
2022-08-07T23:10:52.163Z,3.00
2022-08-07T23:13:49.167Z,2.60
2022-08-07T23:16:55.593Z,2.97
2022-08-07T23:19:51.219Z,3.13
2022-08-07T23:22:22.695Z,3.03
2022-08-07T23:24:53.137Z,3.20
2022-08-07T23:28:22.529Z,3.20
2022-08-07T23:30:43.334Z,3.13
2022-08-07T23:34:34.104Z,3.22
2022-08-07T23:36:22.770Z,3.10
2022-08-07T23:39:04.774Z,3.45
2022-08-07T23:41:47.385Z,3.53
2022-08-07T23:44:41.569Z,3.42
2022-08-07T23:47:29.714Z,4.03
2022-08-07T23:50:16.608Z,3.90
2022-08-07T23:52:58.323Z,3.53
2022-08-07T23:55:53.725Z,3.28
2022-08-07T23:58:29.569Z,3.50
